sensor_id;sensor_type;location;lat;lon;timestamp;P1;durP1;ratioP1;P2;durP2;ratioP2
28180;SDS011;15464;50.988;10.318;2023-11-21T00:02:18;3.72;;;2.00;;
28180;SDS011;15464;50.988;10.318;2023-11-21T00:04:44;2.85;;;2.05;;
28180;SDS011;15464;50.988;10.318;2023-11-21T00:07:12;5.13;;;2.22;;
28180;SDS011;15464;50.988;10.318;2023-11-21T00:09:38;5.68;;;2.45;;
28180;SDS011;15464;50.988;10.318;2023-11-21T00:12:05;5.20;;;2.20;;
28180;SDS011;15464;50.988;10.318;2023-11-21T00:14:32;2.75;;;2.10;;
28180;SDS011;15464;50.988;10.318;2023-11-21T00:16:59;4.55;;;2.58;;
28180;SDS011;15464;50.988;10.318;2023-11-21T00:19:26;4.30;;;2.50;;
28180;SDS011;15464;50.988;10.318;2023-11-21T00:21:52;5.40;;;3.00;;
28180;SDS011;15464;50.988;10.318;2023-11-21T00:24:19;3.28;;;2.40;;
28180;SDS011;15464;50.988;10.318;2023-11-21T00:26:46;3.58;;;2.13;;
28180;SDS011;15464;50.988;10.318;2023-11-21T00:29:15;5.85;;;2.45;;
28180;SDS011;15464;50.988;10.318;2023-11-21T00:31:44;4.20;;;2.33;;
28180;SDS011;15464;50.988;10.318;2023-11-21T00:34:11;3.20;;;1.90;;
28180;SDS011;15464;50.988;10.318;2023-11-21T00:36:38;4.93;;;2.83;;
28180;SDS011;15464;50.988;10.318;2023-11-21T00:39:06;4.72;;;2.38;;
28180;SDS011;15464;50.988;10.318;2023-11-21T00:41:33;7.63;;;3.10;;
28180;SDS011;15464;50.988;10.318;2023-11-21T00:44:00;3.97;;;2.25;;
28180;SDS011;15464;50.988;10.318;2023-11-21T00:46:27;5.63;;;3.08;;
28180;SDS011;15464;50.988;10.318;2023-11-21T00:48:55;6.80;;;3.15;;
28180;SDS011;15464;50.988;10.318;2023-11-21T00:51:22;3.08;;;2.13;;
28180;SDS011;15464;50.988;10.318;2023-11-21T00:53:49;3.30;;;2.50;;
28180;SDS011;15464;50.988;10.318;2023-11-21T00:56:16;5.80;;;2.58;;
28180;SDS011;15464;50.988;10.318;2023-11-21T00:58:42;3.08;;;2.25;;
28180;SDS011;15464;50.988;10.318;2023-11-21T01:01:12;5.32;;;2.63;;
28180;SDS011;15464;50.988;10.318;2023-11-21T01:03:39;6.10;;;2.80;;
28180;SDS011;15464;50.988;10.318;2023-11-21T01:06:06;3.28;;;2.20;;
28180;SDS011;15464;50.988;10.318;2023-11-21T01:08:33;4.53;;;2.45;;
28180;SDS011;15464;50.988;10.318;2023-11-21T01:11:00;6.32;;;2.50;;
28180;SDS011;15464;50.988;10.318;2023-11-21T01:13:27;5.20;;;2.60;;
28180;SDS011;15464;50.988;10.318;2023-11-21T01:15:54;4.55;;;2.30;;
28180;SDS011;15464;50.988;10.318;2023-11-21T01:18:21;5.97;;;2.70;;
28180;SDS011;15464;50.988;10.318;2023-11-21T01:20:48;2.90;;;2.20;;
28180;SDS011;15464;50.988;10.318;2023-11-21T01:23:15;5.85;;;2.65;;
28180;SDS011;15464;50.988;10.318;2023-11-21T01:25:42;4.60;;;2.75;;
28180;SDS011;15464;50.988;10.318;2023-11-21T01:28:08;4.95;;;3.25;;
28180;SDS011;15464;50.988;10.318;2023-11-21T01:30:35;4.75;;;2.78;;
28180;SDS011;15464;50.988;10.318;2023-11-21T01:33:02;4.93;;;2.80;;
28180;SDS011;15464;50.988;10.318;2023-11-21T01:35:29;8.68;;;4.20;;
28180;SDS011;15464;50.988;10.318;2023-11-21T01:37:56;5.22;;;3.47;;
28180;SDS011;15464;50.988;10.318;2023-11-21T01:40:23;9.18;;;3.53;;
28180;SDS011;15464;50.988;10.318;2023-11-21T01:42:52;5.60;;;3.40;;
28180;SDS011;15464;50.988;10.318;2023-11-21T01:45:19;4.90;;;3.22;;
28180;SDS011;15464;50.988;10.318;2023-11-21T01:47:46;5.38;;;3.05;;
28180;SDS011;15464;50.988;10.318;2023-11-21T01:50:14;5.00;;;3.45;;
28180;SDS011;15464;50.988;10.318;2023-11-21T01:52:43;6.75;;;3.47;;
28180;SDS011;15464;50.988;10.318;2023-11-21T01:55:12;5.55;;;2.58;;
28180;SDS011;15464;50.988;10.318;2023-11-21T01:57:54;3.38;;;2.90;;
28180;SDS011;15464;50.988;10.318;2023-11-21T02:00:22;5.28;;;2.70;;
28180;SDS011;15464;50.988;10.318;2023-11-21T02:02:50;5.65;;;3.28;;
28180;SDS011;15464;50.988;10.318;2023-11-21T02:05:18;4.80;;;2.75;;
28180;SDS011;15464;50.988;10.318;2023-11-21T02:07:46;4.70;;;3.15;;
28180;SDS011;15464;50.988;10.318;2023-11-21T02:10:14;5.25;;;2.63;;
28180;SDS011;15464;50.988;10.318;2023-11-21T02:12:42;3.72;;;2.25;;
28180;SDS011;15464;50.988;10.318;2023-11-21T02:15:13;6.18;;;2.95;;
28180;SDS011;15464;50.988;10.318;2023-11-21T02:17:47;5.15;;;2.90;;
28180;SDS011;15464;50.988;10.318;2023-11-21T02:20:22;4.05;;;2.70;;
28180;SDS011;15464;50.988;10.318;2023-11-21T02:22:52;6.15;;;2.70;;
28180;SDS011;15464;50.988;10.318;2023-11-21T02:27:54;6.90;;;3.55;;
28180;SDS011;15464;50.988;10.318;2023-11-21T02:30:22;4.88;;;2.78;;
28180;SDS011;15464;50.988;10.318;2023-11-21T02:32:49;4.10;;;2.55;;
28180;SDS011;15464;50.988;10.318;2023-11-21T02:35:16;6.90;;;3.33;;
28180;SDS011;15464;50.988;10.318;2023-11-21T02:37:42;4.72;;;2.90;;
28180;SDS011;15464;50.988;10.318;2023-11-21T02:40:09;4.43;;;2.75;;
28180;SDS011;15464;50.988;10.318;2023-11-21T02:45:06;6.15;;;3.25;;
28180;SDS011;15464;50.988;10.318;2023-11-21T02:47:34;3.83;;;2.80;;
28180;SDS011;15464;50.988;10.318;2023-11-21T02:50:01;4.57;;;3.10;;
28180;SDS011;15464;50.988;10.318;2023-11-21T02:52:28;6.95;;;4.30;;
28180;SDS011;15464;50.988;10.318;2023-11-21T02:54:55;7.45;;;4.03;;
28180;SDS011;15464;50.988;10.318;2023-11-21T02:57:22;7.88;;;3.78;;
28180;SDS011;15464;50.988;10.318;2023-11-21T02:59:48;5.20;;;3.83;;
28180;SDS011;15464;50.988;10.318;2023-11-21T03:02:16;5.15;;;3.30;;
28180;SDS011;15464;50.988;10.318;2023-11-21T03:04:43;4.28;;;2.80;;
28180;SDS011;15464;50.988;10.318;2023-11-21T03:07:10;4.90;;;3.22;;
28180;SDS011;15464;50.988;10.318;2023-11-21T03:09:37;8.13;;;3.83;;
28180;SDS011;15464;50.988;10.318;2023-11-21T03:12:04;6.68;;;4.68;;
28180;SDS011;15464;50.988;10.318;2023-11-21T03:14:31;4.47;;;2.97;;
28180;SDS011;15464;50.988;10.318;2023-11-21T03:16:57;5.22;;;2.75;;
28180;SDS011;15464;50.988;10.318;2023-11-21T03:19:24;6.35;;;4.13;;
28180;SDS011;15464;50.988;10.318;2023-11-21T03:21:51;6.78;;;3.38;;
28180;SDS011;15464;50.988;10.318;2023-11-21T03:24:19;7.28;;;3.83;;
28180;SDS011;15464;50.988;10.318;2023-11-21T03:26:46;6.80;;;3.83;;
28180;SDS011;15464;50.988;10.318;2023-11-21T03:29:13;4.95;;;3.60;;
28180;SDS011;15464;50.988;10.318;2023-11-21T03:31:40;8.05;;;3.85;;
28180;SDS011;15464;50.988;10.318;2023-11-21T03:34:09;8.00;;;3.55;;
28180;SDS011;15464;50.988;10.318;2023-11-21T03:36:38;6.18;;;3.90;;
28180;SDS011;15464;50.988;10.318;2023-11-21T03:39:04;7.35;;;4.25;;
28180;SDS011;15464;50.988;10.318;2023-11-21T03:41:31;6.18;;;3.25;;
28180;SDS011;15464;50.988;10.318;2023-11-21T03:43:58;4.60;;;3.55;;
28180;SDS011;15464;50.988;10.318;2023-11-21T03:46:25;8.13;;;5.25;;
28180;SDS011;15464;50.988;10.318;2023-11-21T03:48:52;8.32;;;6.97;;
28180;SDS011;15464;50.988;10.318;2023-11-21T03:51:18;5.45;;;3.67;;
28180;SDS011;15464;50.988;10.318;2023-11-21T03:53:45;5.78;;;3.33;;
28180;SDS011;15464;50.988;10.318;2023-11-21T03:56:12;8.48;;;3.40;;
28180;SDS011;15464;50.988;10.318;2023-11-21T03:58:40;4.60;;;3.40;;
28180;SDS011;15464;50.988;10.318;2023-11-21T04:01:06;6.65;;;3.83;;
28180;SDS011;15464;50.988;10.318;2023-11-21T04:03:33;5.32;;;3.70;;
28180;SDS011;15464;50.988;10.318;2023-11-21T04:06:00;6.70;;;3.45;;
28180;SDS011;15464;50.988;10.318;2023-11-21T04:08:27;4.70;;;3.22;;
28180;SDS011;15464;50.988;10.318;2023-11-21T04:10:54;4.47;;;3.45;;
28180;SDS011;15464;50.988;10.318;2023-11-21T04:13:21;6.22;;;3.90;;
28180;SDS011;15464;50.988;10.318;2023-11-21T04:15:47;7.22;;;3.90;;
28180;SDS011;15464;50.988;10.318;2023-11-21T04:18:14;6.93;;;4.57;;
28180;SDS011;15464;50.988;10.318;2023-11-21T04:20:41;5.57;;;3.97;;
28180;SDS011;15464;50.988;10.318;2023-11-21T04:23:08;6.53;;;4.22;;
28180;SDS011;15464;50.988;10.318;2023-11-21T04:25:36;7.97;;;5.17;;
28180;SDS011;15464;50.988;10.318;2023-11-21T04:28:03;8.00;;;4.93;;
28180;SDS011;15464;50.988;10.318;2023-11-21T04:30:30;8.18;;;4.63;;
28180;SDS011;15464;50.988;10.318;2023-11-21T04:32:57;11.88;;;5.40;;
28180;SDS011;15464;50.988;10.318;2023-11-21T04:35:24;6.13;;;4.40;;
28180;SDS011;15464;50.988;10.318;2023-11-21T04:37:50;5.45;;;4.38;;
28180;SDS011;15464;50.988;10.318;2023-11-21T04:40:17;8.52;;;4.43;;
28180;SDS011;15464;50.988;10.318;2023-11-21T04:42:44;6.30;;;4.68;;
28180;SDS011;15464;50.988;10.318;2023-11-21T04:45:10;6.60;;;4.82;;
28180;SDS011;15464;50.988;10.318;2023-11-21T04:47:39;12.47;;;6.73;;
28180;SDS011;15464;50.988;10.318;2023-11-21T04:50:06;9.85;;;6.07;;
28180;SDS011;15464;50.988;10.318;2023-11-21T04:52:33;12.25;;;6.35;;
28180;SDS011;15464;50.988;10.318;2023-11-21T04:55:00;7.97;;;5.55;;
28180;SDS011;15464;50.988;10.318;2023-11-21T04:57:29;12.77;;;5.73;;
28180;SDS011;15464;50.988;10.318;2023-11-21T04:59:55;9.27;;;5.53;;
28180;SDS011;15464;50.988;10.318;2023-11-21T05:02:22;10.52;;;5.65;;
28180;SDS011;15464;50.988;10.318;2023-11-21T05:05:01;13.40;;;6.72;;
28180;SDS011;15464;50.988;10.318;2023-11-21T05:07:28;11.70;;;7.18;;
28180;SDS011;15464;50.988;10.318;2023-11-21T05:09:58;9.50;;;6.72;;
28180;SDS011;15464;50.988;10.318;2023-11-21T05:12:25;14.73;;;6.63;;
28180;SDS011;15464;50.988;10.318;2023-11-21T05:14:51;9.70;;;5.82;;
28180;SDS011;15464;50.988;10.318;2023-11-21T05:17:18;12.80;;;6.63;;
28180;SDS011;15464;50.988;10.318;2023-11-21T05:19:45;13.77;;;8.07;;
28180;SDS011;15464;50.988;10.318;2023-11-21T05:22:15;12.68;;;7.68;;
28180;SDS011;15464;50.988;10.318;2023-11-21T05:24:42;12.52;;;7.47;;
28180;SDS011;15464;50.988;10.318;2023-11-21T05:27:08;31.30;;;11.38;;
28180;SDS011;15464;50.988;10.318;2023-11-21T05:29:36;16.92;;;7.63;;
28180;SDS011;15464;50.988;10.318;2023-11-21T05:32:04;12.35;;;8.35;;
28180;SDS011;15464;50.988;10.318;2023-11-21T05:34:31;12.63;;;8.15;;
28180;SDS011;15464;50.988;10.318;2023-11-21T05:36:57;14.45;;;7.75;;
28180;SDS011;15464;50.988;10.318;2023-11-21T05:39:25;15.55;;;8.88;;
28180;SDS011;15464;50.988;10.318;2023-11-21T05:41:51;10.85;;;7.38;;
28180;SDS011;15464;50.988;10.318;2023-11-21T05:44:18;12.18;;;8.70;;
28180;SDS011;15464;50.988;10.318;2023-11-21T05:46:45;62.10;;;11.20;;
28180;SDS011;15464;50.988;10.318;2023-11-21T05:49:11;60.90;;;11.70;;
28180;SDS011;15464;50.988;10.318;2023-11-21T05:51:38;120.38;;;13.65;;
28180;SDS011;15464;50.988;10.318;2023-11-21T05:54:05;136.18;;;14.38;;
28180;SDS011;15464;50.988;10.318;2023-11-21T05:56:32;82.65;;;11.88;;
28180;SDS011;15464;50.988;10.318;2023-11-21T05:58:58;131.10;;;14.65;;
28180;SDS011;15464;50.988;10.318;2023-11-21T06:01:26;105.20;;;15.43;;
28180;SDS011;15464;50.988;10.318;2023-11-21T06:03:55;186.45;;;18.98;;
28180;SDS011;15464;50.988;10.318;2023-11-21T06:06:22;158.75;;;17.25;;
28180;SDS011;15464;50.988;10.318;2023-11-21T06:08:51;137.82;;;16.50;;
28180;SDS011;15464;50.988;10.318;2023-11-21T06:11:18;112.93;;;14.32;;
28180;SDS011;15464;50.988;10.318;2023-11-21T06:13:45;54.33;;;10.90;;
28180;SDS011;15464;50.988;10.318;2023-11-21T06:16:11;54.42;;;11.68;;
28180;SDS011;15464;50.988;10.318;2023-11-21T06:18:42;114.88;;;14.13;;
28180;SDS011;15464;50.988;10.318;2023-11-21T06:21:10;119.28;;;13.52;;
28180;SDS011;15464;50.988;10.318;2023-11-21T06:23:37;46.42;;;9.60;;
28180;SDS011;15464;50.988;10.318;2023-11-21T06:26:04;92.47;;;11.95;;
28180;SDS011;15464;50.988;10.318;2023-11-21T06:28:31;50.50;;;9.50;;
28180;SDS011;15464;50.988;10.318;2023-11-21T06:30:58;9.07;;;7.15;;
28180;SDS011;15464;50.988;10.318;2023-11-21T06:33:31;218.10;;;18.42;;
28180;SDS011;15464;50.988;10.318;2023-11-21T06:35:58;259.00;;;20.13;;
28180;SDS011;15464;50.988;10.318;2023-11-21T06:38:25;134.00;;;13.63;;
28180;SDS011;15464;50.988;10.318;2023-11-21T06:40:56;202.32;;;15.73;;
28180;SDS011;15464;50.988;10.318;2023-11-21T06:43:24;160.37;;;15.67;;
28180;SDS011;15464;50.988;10.318;2023-11-21T06:45:51;131.90;;;13.18;;
28180;SDS011;15464;50.988;10.318;2023-11-21T06:48:18;154.98;;;17.33;;
28180;SDS011;15464;50.988;10.318;2023-11-21T06:50:45;132.50;;;13.43;;
28180;SDS011;15464;50.988;10.318;2023-11-21T06:53:12;49.17;;;8.00;;
28180;SDS011;15464;50.988;10.318;2023-11-21T06:55:39;52.90;;;9.48;;
28180;SDS011;15464;50.988;10.318;2023-11-21T06:58:06;26.23;;;6.60;;
28180;SDS011;15464;50.988;10.318;2023-11-21T07:00:33;79.13;;;9.45;;
28180;SDS011;15464;50.988;10.318;2023-11-21T07:03:00;132.43;;;13.02;;
28180;SDS011;15464;50.988;10.318;2023-11-21T07:05:27;98.25;;;10.80;;
28180;SDS011;15464;50.988;10.318;2023-11-21T07:07:53;56.53;;;7.88;;
28180;SDS011;15464;50.988;10.318;2023-11-21T07:10:20;88.93;;;9.88;;
28180;SDS011;15464;50.988;10.318;2023-11-21T07:12:47;92.60;;;9.68;;
28180;SDS011;15464;50.988;10.318;2023-11-21T07:15:14;89.38;;;10.25;;
28180;SDS011;15464;50.988;10.318;2023-11-21T07:17:41;81.68;;;10.02;;
28180;SDS011;15464;50.988;10.318;2023-11-21T07:20:07;113.32;;;10.98;;
28180;SDS011;15464;50.988;10.318;2023-11-21T07:22:35;108.75;;;10.45;;
28180;SDS011;15464;50.988;10.318;2023-11-21T07:25:01;126.45;;;11.15;;
28180;SDS011;15464;50.988;10.318;2023-11-21T07:27:28;147.45;;;12.73;;
28180;SDS011;15464;50.988;10.318;2023-11-21T07:29:55;153.07;;;14.23;;
28180;SDS011;15464;50.988;10.318;2023-11-21T07:32:22;92.35;;;11.68;;
28180;SDS011;15464;50.988;10.318;2023-11-21T07:34:48;217.40;;;16.50;;
28180;SDS011;15464;50.988;10.318;2023-11-21T07:37:15;101.88;;;11.40;;
28180;SDS011;15464;50.988;10.318;2023-11-21T07:39:42;97.57;;;10.55;;
28180;SDS011;15464;50.988;10.318;2023-11-21T07:42:09;129.50;;;13.48;;
28180;SDS011;15464;50.988;10.318;2023-11-21T07:44:37;160.75;;;14.15;;
28180;SDS011;15464;50.988;10.318;2023-11-21T07:47:04;16.00;;;7.03;;
28180;SDS011;15464;50.988;10.318;2023-11-21T07:49:31;22.20;;;7.03;;
28180;SDS011;15464;50.988;10.318;2023-11-21T07:51:57;55.88;;;8.63;;
28180;SDS011;15464;50.988;10.318;2023-11-21T07:54:24;103.28;;;10.93;;
28180;SDS011;15464;50.988;10.318;2023-11-21T07:56:51;127.10;;;13.05;;
28180;SDS011;15464;50.988;10.318;2023-11-21T07:59:17;63.85;;;9.73;;
28180;SDS011;15464;50.988;10.318;2023-11-21T08:01:44;103.05;;;12.05;;
28180;SDS011;15464;50.988;10.318;2023-11-21T08:04:12;24.38;;;7.85;;
28180;SDS011;15464;50.988;10.318;2023-11-21T08:06:39;145.13;;;15.68;;
28180;SDS011;15464;50.988;10.318;2023-11-21T08:09:08;121.10;;;11.57;;
28180;SDS011;15464;50.988;10.318;2023-11-21T08:11:34;130.18;;;13.82;;
28180;SDS011;15464;50.988;10.318;2023-11-21T08:14:01;131.35;;;13.15;;
28180;SDS011;15464;50.988;10.318;2023-11-21T08:16:28;114.50;;;12.98;;
28180;SDS011;15464;50.988;10.318;2023-11-21T08:18:55;79.15;;;10.68;;
28180;SDS011;15464;50.988;10.318;2023-11-21T08:21:22;107.18;;;14.93;;
28180;SDS011;15464;50.988;10.318;2023-11-21T08:23:51;112.43;;;16.75;;
28180;SDS011;15464;50.988;10.318;2023-11-21T08:28:47;18.13;;;7.25;;
28180;SDS011;15464;50.988;10.318;2023-11-21T08:31:14;27.58;;;9.20;;
28180;SDS011;15464;50.988;10.318;2023-11-21T08:33:42;33.58;;;11.38;;
28180;SDS011;15464;50.988;10.318;2023-11-21T08:36:09;16.42;;;8.27;;
28180;SDS011;15464;50.988;10.318;2023-11-21T08:41:05;10.55;;;6.10;;
28180;SDS011;15464;50.988;10.318;2023-11-21T08:43:35;12.85;;;7.22;;
28180;SDS011;15464;50.988;10.318;2023-11-21T08:46:06;13.05;;;7.93;;
28180;SDS011;15464;50.988;10.318;2023-11-21T08:48:35;13.75;;;7.43;;
28180;SDS011;15464;50.988;10.318;2023-11-21T08:51:03;10.40;;;6.93;;
28180;SDS011;15464;50.988;10.318;2023-11-21T08:53:31;14.77;;;7.63;;
28180;SDS011;15464;50.988;10.318;2023-11-21T08:55:57;24.08;;;8.95;;
28180;SDS011;15464;50.988;10.318;2023-11-21T08:58:24;11.35;;;7.18;;
28180;SDS011;15464;50.988;10.318;2023-11-21T09:00:51;9.85;;;6.88;;
28180;SDS011;15464;50.988;10.318;2023-11-21T09:03:18;10.00;;;7.57;;
28180;SDS011;15464;50.988;10.318;2023-11-21T09:05:45;10.02;;;7.35;;
28180;SDS011;15464;50.988;10.318;2023-11-21T09:08:11;12.90;;;8.27;;
28180;SDS011;15464;50.988;10.318;2023-11-21T09:10:38;9.82;;;7.30;;
28180;SDS011;15464;50.988;10.318;2023-11-21T09:13:06;10.95;;;8.23;;
28180;SDS011;15464;50.988;10.318;2023-11-21T09:15:35;10.60;;;7.85;;
28180;SDS011;15464;50.988;10.318;2023-11-21T09:18:02;11.38;;;7.47;;
28180;SDS011;15464;50.988;10.318;2023-11-21T09:20:29;12.65;;;9.07;;
28180;SDS011;15464;50.988;10.318;2023-11-21T09:22:55;14.40;;;9.38;;
28180;SDS011;15464;50.988;10.318;2023-11-21T09:25:22;17.45;;;10.25;;
28180;SDS011;15464;50.988;10.318;2023-11-21T09:27:49;16.52;;;10.25;;
28180;SDS011;15464;50.988;10.318;2023-11-21T09:30:16;14.38;;;9.18;;
28180;SDS011;15464;50.988;10.318;2023-11-21T09:32:43;16.60;;;9.50;;
28180;SDS011;15464;50.988;10.318;2023-11-21T09:35:12;14.45;;;9.45;;
28180;SDS011;15464;50.988;10.318;2023-11-21T09:37:40;11.73;;;8.23;;
28180;SDS011;15464;50.988;10.318;2023-11-21T09:40:09;14.00;;;8.77;;
28180;SDS011;15464;50.988;10.318;2023-11-21T09:42:40;10.23;;;8.02;;
28180;SDS011;15464;50.988;10.318;2023-11-21T09:45:15;13.07;;;9.38;;
28180;SDS011;15464;50.988;10.318;2023-11-21T09:47:47;12.90;;;9.68;;
28180;SDS011;15464;50.988;10.318;2023-11-21T09:50:17;13.48;;;9.50;;
28180;SDS011;15464;50.988;10.318;2023-11-21T09:55:24;10.85;;;8.57;;
28180;SDS011;15464;50.988;10.318;2023-11-21T09:57:56;9.45;;;7.65;;
28180;SDS011;15464;50.988;10.318;2023-11-21T10:00:23;11.18;;;7.75;;
28180;SDS011;15464;50.988;10.318;2023-11-21T10:02:50;11.05;;;8.60;;
28180;SDS011;15464;50.988;10.318;2023-11-21T10:05:19;12.25;;;8.70;;
28180;SDS011;15464;50.988;10.318;2023-11-21T10:07:51;11.30;;;8.60;;
28180;SDS011;15464;50.988;10.318;2023-11-21T10:10:19;13.70;;;9.15;;
28180;SDS011;15464;50.988;10.318;2023-11-21T10:12:49;13.10;;;9.57;;
28180;SDS011;15464;50.988;10.318;2023-11-21T10:15:21;15.10;;;9.50;;
28180;SDS011;15464;50.988;10.318;2023-11-21T10:17:49;13.10;;;9.43;;
28180;SDS011;15464;50.988;10.318;2023-11-21T10:20:16;13.77;;;9.23;;
28180;SDS011;15464;50.988;10.318;2023-11-21T10:22:43;15.95;;;9.82;;
28180;SDS011;15464;50.988;10.318;2023-11-21T10:25:10;15.75;;;10.40;;
28180;SDS011;15464;50.988;10.318;2023-11-21T10:27:37;13.07;;;8.95;;
28180;SDS011;15464;50.988;10.318;2023-11-21T10:30:07;12.35;;;9.00;;
28180;SDS011;15464;50.988;10.318;2023-11-21T10:32:41;10.75;;;8.50;;
28180;SDS011;15464;50.988;10.318;2023-11-21T10:35:09;16.80;;;9.77;;
28180;SDS011;15464;50.988;10.318;2023-11-21T10:37:37;13.18;;;9.32;;
28180;SDS011;15464;50.988;10.318;2023-11-21T10:40:08;11.38;;;8.85;;
28180;SDS011;15464;50.988;10.318;2023-11-21T10:42:39;12.60;;;9.00;;
28180;SDS011;15464;50.988;10.318;2023-11-21T10:45:07;15.15;;;9.15;;
28180;SDS011;15464;50.988;10.318;2023-11-21T10:47:41;13.77;;;9.25;;
28180;SDS011;15464;50.988;10.318;2023-11-21T10:50:10;12.75;;;9.55;;
28180;SDS011;15464;50.988;10.318;2023-11-21T10:52:41;13.07;;;9.73;;
28180;SDS011;15464;50.988;10.318;2023-11-21T10:55:16;14.38;;;9.63;;
28180;SDS011;15464;50.988;10.318;2023-11-21T10:57:46;15.35;;;10.10;;
28180;SDS011;15464;50.988;10.318;2023-11-21T11:00:15;15.30;;;9.95;;
28180;SDS011;15464;50.988;10.318;2023-11-21T11:02:45;13.60;;;9.50;;
28180;SDS011;15464;50.988;10.318;2023-11-21T11:05:16;16.05;;;10.38;;
28180;SDS011;15464;50.988;10.318;2023-11-21T11:07:47;17.67;;;10.60;;
28180;SDS011;15464;50.988;10.318;2023-11-21T11:10:21;17.55;;;9.32;;
28180;SDS011;15464;50.988;10.318;2023-11-21T11:12:49;11.45;;;9.20;;
28180;SDS011;15464;50.988;10.318;2023-11-21T11:15:16;12.20;;;9.05;;
28180;SDS011;15464;50.988;10.318;2023-11-21T11:17:43;12.35;;;9.43;;
28180;SDS011;15464;50.988;10.318;2023-11-21T11:20:12;13.75;;;8.98;;
28180;SDS011;15464;50.988;10.318;2023-11-21T11:25:24;14.60;;;9.05;;
28180;SDS011;15464;50.988;10.318;2023-11-21T11:30:53;13.95;;;8.75;;
28180;SDS011;15464;50.988;10.318;2023-11-21T11:36:06;13.55;;;9.18;;
28180;SDS011;15464;50.988;10.318;2023-11-21T11:38:34;13.68;;;9.30;;
28180;SDS011;15464;50.988;10.318;2023-11-21T11:41:05;11.20;;;8.95;;
28180;SDS011;15464;50.988;10.318;2023-11-21T11:43:33;11.87;;;9.20;;
28180;SDS011;15464;50.988;10.318;2023-11-21T11:46:06;13.27;;;9.23;;
28180;SDS011;15464;50.988;10.318;2023-11-21T11:48:40;15.57;;;10.02;;
28180;SDS011;15464;50.988;10.318;2023-11-21T11:51:10;15.02;;;9.32;;
28180;SDS011;15464;50.988;10.318;2023-11-21T11:53:41;13.15;;;8.88;;
28180;SDS011;15464;50.988;10.318;2023-11-21T11:56:30;16.58;;;9.57;;
28180;SDS011;15464;50.988;10.318;2023-11-21T11:58:58;14.68;;;9.40;;
28180;SDS011;15464;50.988;10.318;2023-11-21T12:01:29;17.67;;;9.82;;
28180;SDS011;15464;50.988;10.318;2023-11-21T12:06:43;13.98;;;9.23;;
28180;SDS011;15464;50.988;10.318;2023-11-21T12:09:19;11.77;;;8.32;;
28180;SDS011;15464;50.988;10.318;2023-11-21T12:11:48;12.27;;;8.93;;
28180;SDS011;15464;50.988;10.318;2023-11-21T12:14:16;13.85;;;8.77;;
28180;SDS011;15464;50.988;10.318;2023-11-21T12:16:43;12.35;;;8.77;;
28180;SDS011;15464;50.988;10.318;2023-11-21T12:19:11;16.13;;;8.65;;
28180;SDS011;15464;50.988;10.318;2023-11-21T12:21:38;11.65;;;8.80;;
28180;SDS011;15464;50.988;10.318;2023-11-21T12:24:07;11.38;;;7.55;;
28180;SDS011;15464;50.988;10.318;2023-11-21T12:26:40;10.07;;;7.63;;
28180;SDS011;15464;50.988;10.318;2023-11-21T12:29:07;10.88;;;7.70;;
28180;SDS011;15464;50.988;10.318;2023-11-21T12:31:34;8.07;;;6.93;;
28180;SDS011;15464;50.988;10.318;2023-11-21T12:34:02;13.50;;;7.85;;
28180;SDS011;15464;50.988;10.318;2023-11-21T12:36:29;9.95;;;6.85;;
28180;SDS011;15464;50.988;10.318;2023-11-21T12:38:56;11.60;;;8.23;;
28180;SDS011;15464;50.988;10.318;2023-11-21T12:41:23;11.23;;;8.43;;
28180;SDS011;15464;50.988;10.318;2023-11-21T12:43:50;14.05;;;7.55;;
28180;SDS011;15464;50.988;10.318;2023-11-21T12:46:17;11.30;;;7.35;;
28180;SDS011;15464;50.988;10.318;2023-11-21T12:48:44;12.10;;;6.97;;
28180;SDS011;15464;50.988;10.318;2023-11-21T12:51:14;10.70;;;6.70;;
28180;SDS011;15464;50.988;10.318;2023-11-21T12:53:42;8.63;;;7.00;;
28180;SDS011;15464;50.988;10.318;2023-11-21T12:56:11;9.60;;;5.93;;
28180;SDS011;15464;50.988;10.318;2023-11-21T12:58:39;7.22;;;5.78;;
28180;SDS011;15464;50.988;10.318;2023-11-21T13:01:08;9.75;;;5.25;;
28180;SDS011;15464;50.988;10.318;2023-11-21T13:03:48;9.40;;;5.57;;
28180;SDS011;15464;50.988;10.318;2023-11-21T13:06:17;9.48;;;5.60;;
28180;SDS011;15464;50.988;10.318;2023-11-21T13:08:46;9.07;;;5.93;;
28180;SDS011;15464;50.988;10.318;2023-11-21T13:11:13;9.77;;;6.68;;
28180;SDS011;15464;50.988;10.318;2023-11-21T13:13:41;7.75;;;5.40;;
28180;SDS011;15464;50.988;10.318;2023-11-21T13:16:12;9.98;;;6.72;;
28180;SDS011;15464;50.988;10.318;2023-11-21T13:18:39;8.18;;;5.35;;
28180;SDS011;15464;50.988;10.318;2023-11-21T13:21:08;5.85;;;4.93;;
28180;SDS011;15464;50.988;10.318;2023-11-21T13:23:44;6.63;;;4.82;;
28180;SDS011;15464;50.988;10.318;2023-11-21T13:26:12;8.68;;;5.35;;
28180;SDS011;15464;50.988;10.318;2023-11-21T13:28:41;7.10;;;5.07;;
28180;SDS011;15464;50.988;10.318;2023-11-21T13:31:13;7.18;;;4.50;;
28180;SDS011;15464;50.988;10.318;2023-11-21T13:33:53;5.78;;;4.35;;
28180;SDS011;15464;50.988;10.318;2023-11-21T13:36:25;12.35;;;4.60;;
28180;SDS011;15464;50.988;10.318;2023-11-21T13:38:52;5.07;;;4.30;;
28180;SDS011;15464;50.988;10.318;2023-11-21T13:41:20;6.72;;;4.25;;
28180;SDS011;15464;50.988;10.318;2023-11-21T13:43:54;6.88;;;4.07;;
28180;SDS011;15464;50.988;10.318;2023-11-21T13:46:29;3.90;;;3.47;;
28180;SDS011;15464;50.988;10.318;2023-11-21T13:49:04;4.15;;;3.60;;
28180;SDS011;15464;50.988;10.318;2023-11-21T13:51:36;6.50;;;3.80;;
28180;SDS011;15464;50.988;10.318;2023-11-21T13:54:12;5.65;;;3.65;;
28180;SDS011;15464;50.988;10.318;2023-11-21T13:56:40;6.45;;;3.25;;
28180;SDS011;15464;50.988;10.318;2023-11-21T13:59:10;3.83;;;2.83;;
28180;SDS011;15464;50.988;10.318;2023-11-21T14:01:50;3.70;;;2.92;;
28180;SDS011;15464;50.988;10.318;2023-11-21T14:04:22;3.75;;;2.60;;
28180;SDS011;15464;50.988;10.318;2023-11-21T14:07:22;2.83;;;2.40;;
28180;SDS011;15464;50.988;10.318;2023-11-21T14:10:12;2.70;;;2.35;;
28180;SDS011;15464;50.988;10.318;2023-11-21T14:12:41;3.92;;;2.38;;
28180;SDS011;15464;50.988;10.318;2023-11-21T14:15:09;4.68;;;2.30;;
28180;SDS011;15464;50.988;10.318;2023-11-21T14:17:38;2.85;;;2.50;;
28180;SDS011;15464;50.988;10.318;2023-11-21T14:20:08;3.67;;;3.20;;
28180;SDS011;15464;50.988;10.318;2023-11-21T14:22:43;3.90;;;3.03;;
28180;SDS011;15464;50.988;10.318;2023-11-21T14:25:09;5.20;;;3.30;;
28180;SDS011;15464;50.988;10.318;2023-11-21T14:27:38;4.03;;;3.30;;
28180;SDS011;15464;50.988;10.318;2023-11-21T14:30:05;2.85;;;2.63;;
28180;SDS011;15464;50.988;10.318;2023-11-21T14:32:32;2.05;;;1.77;;
28180;SDS011;15464;50.988;10.318;2023-11-21T14:34:59;1.58;;;1.48;;
28180;SDS011;15464;50.988;10.318;2023-11-21T14:37:26;1.45;;;1.00;;
28180;SDS011;15464;50.988;10.318;2023-11-21T14:39:52;2.45;;;1.13;;
28180;SDS011;15464;50.988;10.318;2023-11-21T14:42:20;1.27;;;1.13;;
28180;SDS011;15464;50.988;10.318;2023-11-21T14:44:51;3.45;;;1.80;;
28180;SDS011;15464;50.988;10.318;2023-11-21T14:47:18;2.20;;;2.00;;
28180;SDS011;15464;50.988;10.318;2023-11-21T14:49:51;2.35;;;2.00;;
28180;SDS011;15464;50.988;10.318;2023-11-21T14:52:19;2.38;;;2.17;;
28180;SDS011;15464;50.988;10.318;2023-11-21T14:55:02;5.63;;;3.30;;